createdAt,value
2018-08-17T00:01:31.995Z,97084.72
2018-08-17T00:04:00.564Z,97084.36
2018-08-17T00:06:29.147Z,97079.86
2018-08-17T00:08:57.839Z,97075.27
2018-08-17T00:11:26.448Z,97073.27
2018-08-17T00:13:55.055Z,97069.77
2018-08-17T00:16:24.036Z,97075.43
2018-08-17T00:18:52.592Z,97072.96
2018-08-17T00:21:21.171Z,97066.20
2018-08-17T00:23:49.794Z,97071.36
2018-08-17T00:26:18.384Z,97071.00
2018-08-17T00:28:46.944Z,97068.45
2018-08-17T00:31:16.140Z,97066.25
2018-08-17T00:33:45.186Z,97060.09
2018-08-17T00:36:13.767Z,97060.67
2018-08-17T00:38:42.474Z,97062.66
2018-08-17T00:41:11.056Z,97060.77
2018-08-17T00:43:39.620Z,97059.81
2018-08-17T00:46:09.223Z,97053.72
2018-08-17T00:48:37.780Z,97050.42
2018-08-17T00:51:07.081Z,97055.11
2018-08-17T00:53:35.687Z,97055.11
2018-08-17T00:56:04.361Z,97060.95
2018-08-17T00:58:33.001Z,97056.41
2018-08-17T01:01:01.719Z,97054.20
2018-08-17T01:03:30.726Z,97054.04
2018-08-17T01:05:59.320Z,97057.91
2018-08-17T01:08:28.055Z,97056.47
2018-08-17T01:10:56.660Z,97054.77
2018-08-17T01:13:25.255Z,97052.14
2018-08-17T01:15:53.887Z,97054.39
2018-08-17T01:18:22.460Z,97045.48
2018-08-17T01:20:51.070Z,97044.34
2018-08-17T01:23:19.801Z,97053.47
2018-08-17T01:25:48.379Z,97050.22
2018-08-17T01:28:17.082Z,97051.67
2018-08-17T01:30:45.679Z,97052.23
2018-08-17T01:33:14.250Z,97050.17
2018-08-17T01:35:42.807Z,97045.02
2018-08-17T01:38:11.420Z,97048.75
2018-08-17T01:40:39.987Z,97041.42
2018-08-17T01:43:08.592Z,97038.96
2018-08-17T01:45:37.231Z,97037.14
2018-08-17T01:48:05.919Z,97042.76
2018-08-17T01:50:34.566Z,97045.80
2018-08-17T01:53:03.247Z,97037.25
2018-08-17T01:55:32.148Z,97042.30
2018-08-17T01:58:00.700Z,97038.66
2018-08-17T02:00:29.668Z,97036.66
2018-08-17T02:02:58.243Z,97035.52
2018-08-17T02:05:26.856Z,97042.06
2018-08-17T02:07:55.472Z,97039.53
2018-08-17T02:10:24.096Z,97038.71
2018-08-17T02:12:52.699Z,97037.92
2018-08-17T02:15:21.352Z,97034.17
2018-08-17T02:17:49.963Z,97039.92
2018-08-17T02:20:18.555Z,97041.67
2018-08-17T02:22:47.155Z,97042.17
2018-08-17T02:25:15.719Z,97035.45
2018-08-17T02:27:44.299Z,97034.77
2018-08-17T02:30:13.208Z,97036.78
2018-08-17T02:32:41.789Z,97039.50
2018-08-17T02:35:10.392Z,97041.61
2018-08-17T02:37:38.982Z,97036.84
2018-08-17T02:40:07.560Z,97036.63
2018-08-17T02:42:36.119Z,97029.63
2018-08-17T02:45:06.044Z,97029.98
2018-08-17T02:47:34.627Z,97029.59
2018-08-17T02:50:03.226Z,97028.91
2018-08-17T02:52:31.986Z,97028.09
2018-08-17T02:55:00.549Z,97025.08
2018-08-17T02:57:29.123Z,97024.72
2018-08-17T02:59:57.826Z,97026.63
2018-08-17T03:02:26.492Z,97025.47
2018-08-17T03:04:55.061Z,97026.87
2018-08-17T03:07:23.745Z,97019.39
2018-08-17T03:09:52.318Z,97029.11
2018-08-17T03:12:20.888Z,97023.75
2018-08-17T03:14:49.598Z,97030.05
2018-08-17T03:17:18.174Z,97033.55
2018-08-17T03:19:46.724Z,97034.05
2018-08-17T03:22:15.339Z,97030.19
2018-08-17T03:24:43.924Z,97038.95
2018-08-17T03:27:12.484Z,97037.52
2018-08-17T03:29:41.083Z,97038.80
2018-08-17T03:32:09.631Z,97036.23
2018-08-17T03:34:38.195Z,97043.02
2018-08-17T03:37:07.159Z,97038.80
2018-08-17T03:39:35.845Z,97039.23
2018-08-17T03:42:04.544Z,97043.81
2018-08-17T03:44:33.176Z,97047.07
2018-08-17T03:47:01.776Z,97041.56
2018-08-17T03:49:30.310Z,97040.64
2018-08-17T03:51:59.291Z,97044.64
2018-08-17T03:54:27.878Z,97045.78
2018-08-17T03:56:56.455Z,97049.64
2018-08-17T03:59:25.176Z,97047.50
2018-08-17T04:01:53.731Z,97052.66
2018-08-17T04:04:22.303Z,97050.66
2018-08-17T04:06:50.867Z,97049.58
2018-08-17T04:09:19.429Z,97051.83
2018-08-17T04:11:48.014Z,97053.37
2018-08-17T04:14:16.918Z,97053.37
2018-08-17T04:16:45.511Z,97060.48
2018-08-17T04:19:14.056Z,97060.59
2018-08-17T04:21:42.656Z,97061.20
2018-08-17T04:24:11.329Z,97062.52
2018-08-17T04:26:39.859Z,97065.80
2018-08-17T04:29:08.464Z,97066.27
2018-08-17T04:31:37.028Z,97068.63
2018-08-17T04:34:05.631Z,97065.80
2018-08-17T04:36:34.243Z,97064.52
2018-08-17T04:39:02.973Z,97070.70
2018-08-17T04:41:31.556Z,97074.81
2018-08-17T04:44:00.143Z,97074.59
2018-08-17T04:46:28.708Z,97069.91
2018-08-17T04:48:57.280Z,97072.16
2018-08-17T04:51:25.888Z,97074.34
2018-08-17T04:53:54.456Z,97073.98
2018-08-17T04:56:23.046Z,97076.45
2018-08-17T04:58:51.639Z,97074.21
2018-08-17T05:01:20.208Z,97080.97
2018-08-17T05:03:48.760Z,97081.44
2018-08-17T05:06:17.396Z,97074.42
2018-08-17T05:08:45.951Z,97082.15
2018-08-17T05:11:14.511Z,97078.97
2018-08-17T05:13:43.108Z,97077.08
2018-08-17T05:16:11.695Z,97083.16
2018-08-17T05:18:40.239Z,97083.73
2018-08-17T05:21:08.919Z,97088.96
2018-08-17T05:23:37.516Z,97085.95
2018-08-17T05:26:06.228Z,97084.20
2018-08-17T05:28:34.840Z,97085.02
2018-08-17T05:31:03.429Z,97091.10
2018-08-17T05:33:32.025Z,97092.25
2018-08-17T05:36:00.924Z,97090.68
2018-08-17T05:38:29.575Z,97092.36
2018-08-17T05:40:58.188Z,97091.50
2018-08-17T05:43:26.789Z,97090.73
2018-08-17T05:45:55.359Z,97094.23
2018-08-17T05:48:23.940Z,97094.08
2018-08-17T05:50:52.643Z,97099.72
2018-08-17T05:53:21.196Z,97101.22
2018-08-17T05:55:49.809Z,97098.91
2018-08-17T05:58:18.455Z,97098.02
2018-08-17T06:00:47.107Z,97100.83
2018-08-17T06:03:15.709Z,97104.83
2018-08-17T06:05:44.304Z,97107.81
2018-08-17T06:08:12.892Z,97107.98
2018-08-17T06:10:41.464Z,97103.92
2018-08-17T06:13:10.096Z,97109.08
2018-08-17T06:15:38.715Z,97109.77
2018-08-17T06:18:07.337Z,97112.23
2018-08-17T06:20:35.927Z,97110.52
2018-08-17T06:23:04.548Z,97118.81
2018-08-17T06:25:33.131Z,97121.95
2018-08-17T06:28:02.082Z,97125.06
2018-08-17T06:30:30.665Z,97126.60
2018-08-17T06:32:59.250Z,97121.38
2018-08-17T06:35:27.981Z,97124.19
2018-08-17T06:37:56.620Z,97125.49
2018-08-17T06:40:25.196Z,97126.56
2018-08-17T06:42:53.915Z,97125.17
2018-08-17T06:45:22.499Z,97125.08
2018-08-17T06:47:51.123Z,97128.99
2018-08-17T06:50:19.758Z,97132.11
2018-08-17T06:52:48.339Z,97136.94
2018-08-17T06:55:16.908Z,97142.78
2018-08-17T06:57:45.511Z,97146.38
2018-08-17T07:00:16.024Z,97146.80
2018-08-17T07:02:45.844Z,97144.56
2018-08-17T07:05:14.759Z,97144.63
2018-08-17T07:07:43.688Z,97154.93
2018-08-17T07:10:13.671Z,97148.78
2018-08-17T07:12:42.850Z,97151.87
2018-08-17T07:15:11.583Z,97149.91
2018-08-17T07:17:41.061Z,97153.41
2018-08-17T07:20:11.557Z,97159.89
2018-08-17T07:22:40.367Z,97158.91
2018-08-17T07:25:09.578Z,97158.67
2018-08-17T07:27:38.567Z,97162.58
2018-08-17T07:30:08.659Z,97155.77
2018-08-17T07:32:37.227Z,97162.83
2018-08-17T07:35:07.459Z,97154.86
2018-08-17T07:37:36.407Z,97159.86
2018-08-17T07:40:05.052Z,97161.22
2018-08-17T07:42:33.634Z,97160.19
2018-08-17T07:45:02.299Z,97160.09
2018-08-17T07:47:30.898Z,97160.98
2018-08-17T07:49:59.476Z,97148.41
2018-08-17T07:52:28.405Z,97162.70
2018-08-17T07:54:56.976Z,97163.07
2018-08-17T07:57:25.589Z,97169.60
2018-08-17T07:59:54.272Z,97169.03
2018-08-17T08:02:22.836Z,97176.75
2018-08-17T08:04:51.429Z,97177.48
2018-08-17T08:07:20.062Z,97173.81
2018-08-17T08:09:48.636Z,97182.10
2018-08-17T08:12:17.211Z,97193.92
2018-08-17T08:14:45.812Z,97192.03
2018-08-17T08:17:14.400Z,97190.73
2018-08-17T08:19:42.964Z,97196.02
2018-08-17T08:22:11.630Z,97198.38
2018-08-17T08:24:40.309Z,97194.61
2018-08-17T08:27:09.160Z,97204.27
2018-08-17T08:29:37.767Z,97202.78
2018-08-17T08:32:06.386Z,97191.71
2018-08-17T08:34:34.952Z,97202.77
2018-08-17T08:37:03.556Z,97209.35
2018-08-17T08:39:32.132Z,97203.27
2018-08-17T08:42:00.752Z,97205.56
2018-08-17T08:44:29.428Z,97211.09
2018-08-17T08:46:58.012Z,97213.13
2018-08-17T08:49:26.596Z,97211.21
2018-08-17T08:51:55.215Z,97214.22
2018-08-17T08:54:23.801Z,97216.93
2018-08-17T08:56:52.360Z,97221.76
2018-08-17T08:59:21.311Z,97222.63
2018-08-17T09:01:49.960Z,97227.67
2018-08-17T09:04:18.592Z,97224.63
2018-08-17T09:06:47.200Z,97224.50
2018-08-17T09:09:15.757Z,97222.59
2018-08-17T09:11:44.342Z,97221.14
2018-08-17T09:14:13.034Z,97232.43
2018-08-17T09:16:41.618Z,97229.59
2018-08-17T09:19:10.183Z,97230.09
2018-08-17T09:21:38.874Z,97228.81
2018-08-17T09:24:07.517Z,97228.31
2018-08-17T09:26:36.083Z,97226.50
2018-08-17T09:29:05.232Z,97216.70
2018-08-17T09:31:33.859Z,97225.25
2018-08-17T09:34:02.412Z,97221.96
2018-08-17T09:36:31.303Z,97221.76
2018-08-17T09:38:59.872Z,97223.78
2018-08-17T09:41:28.440Z,97226.87
2018-08-17T09:43:57.367Z,97223.95
2018-08-17T09:46:25.952Z,97220.08
2018-08-17T09:48:54.783Z,97221.71
2018-08-17T09:51:23.544Z,97224.40
2018-08-17T09:53:52.063Z,97214.08
2018-08-17T09:56:20.630Z,97214.25
2018-08-17T09:58:49.479Z,97206.33
2018-08-17T10:01:23.292Z,97212.13
2018-08-17T10:03:57.543Z,97216.17
2018-08-17T10:06:31.407Z,97214.77
2018-08-17T10:10:07.484Z,97220.88
2018-08-17T10:12:36.096Z,97213.63
2018-08-17T10:15:04.831Z,97207.43
2018-08-17T10:17:33.432Z,97206.95
2018-08-17T10:20:02.016Z,97209.16
2018-08-17T10:22:30.613Z,97213.59
2018-08-17T10:25:06.283Z,97209.20
2018-08-17T10:27:34.844Z,97205.89
2018-08-17T10:30:03.419Z,97220.71
2018-08-17T10:32:35.488Z,97210.98
2018-08-17T10:35:04.997Z,97213.78
2018-08-17T10:37:33.580Z,97216.13
2018-08-17T10:40:02.473Z,97220.23
2018-08-17T10:42:31.051Z,97216.02
2018-08-17T10:44:59.612Z,97212.92
2018-08-17T10:47:28.259Z,97212.91
2018-08-17T10:49:58.955Z,97219.20
2018-08-17T10:52:27.544Z,97215.48
2018-08-17T10:54:56.152Z,97218.63
2018-08-17T10:57:24.807Z,97223.43
2018-08-17T10:59:53.427Z,97225.45
2018-08-17T11:02:22.015Z,97216.53
2018-08-17T11:04:50.635Z,97216.47
2018-08-17T11:07:23.948Z,97208.43
2018-08-17T11:09:52.864Z,97210.18
2018-08-17T11:12:21.472Z,97209.91
2018-08-17T11:14:50.324Z,97212.31
2018-08-17T11:17:18.908Z,97209.02
2018-08-17T11:19:47.491Z,97206.01
2018-08-17T11:22:17.204Z,97201.80
2018-08-17T11:24:45.828Z,97204.81
2018-08-17T11:27:14.435Z,97204.72
2018-08-17T11:29:43.060Z,97200.02
2018-08-17T11:32:11.825Z,97193.77
2018-08-17T11:34:40.535Z,97201.41
2018-08-17T11:37:09.181Z,97193.67
2018-08-17T11:39:41.550Z,97203.00
2018-08-17T11:42:10.180Z,97205.21
2018-08-17T11:44:38.741Z,97212.27
2018-08-17T11:47:07.387Z,97212.85
2018-08-17T11:49:36.144Z,97215.70
2018-08-17T11:52:04.741Z,97209.28
2018-08-17T11:54:33.319Z,97214.02
2018-08-17T11:57:01.945Z,97210.87
2018-08-17T11:59:30.556Z,97208.23
2018-08-17T12:01:59.268Z,97210.41
2018-08-17T12:04:27.977Z,97204.78
2018-08-17T12:06:56.611Z,97196.61
2018-08-17T12:09:25.212Z,97198.08
2018-08-17T12:11:54.908Z,97201.30
2018-08-17T12:14:23.600Z,97198.80
2018-08-17T12:16:52.207Z,97194.88
2018-08-17T12:19:20.824Z,97194.44
2018-08-17T12:21:49.399Z,97194.00
2018-08-17T12:24:18.088Z,97195.05
2018-08-17T12:26:52.750Z,97197.30
2018-08-17T12:29:21.328Z,97187.47
2018-08-17T12:31:50.352Z,97187.59
2018-08-17T12:34:19.293Z,97181.36
2018-08-17T12:36:47.853Z,97187.13
2018-08-17T12:39:16.436Z,97192.86
2018-08-17T12:41:45.025Z,97191.48
2018-08-17T12:44:13.628Z,97179.62
2018-08-17T12:46:42.168Z,97178.95
2018-08-17T12:49:10.759Z,97181.87
2018-08-17T12:51:39.357Z,97180.54
2018-08-17T12:54:10.312Z,97181.22
2018-08-17T12:56:38.909Z,97178.64
2018-08-17T12:59:07.499Z,97174.00
2018-08-17T13:01:36.140Z,97180.14
2018-08-17T13:04:04.715Z,97174.98
2018-08-17T13:06:33.332Z,97177.11
2018-08-17T13:09:02.044Z,97176.18
2018-08-17T13:11:30.659Z,97184.81
2018-08-17T13:14:03.405Z,97179.30
2018-08-17T13:16:31.997Z,97175.80
2018-08-17T13:19:00.571Z,97173.81
2018-08-17T13:21:29.204Z,97179.73
2018-08-17T13:23:57.773Z,97178.43
2018-08-17T13:26:26.373Z,97178.48
2018-08-17T13:28:55.076Z,97176.14
2018-08-17T13:31:23.780Z,97183.98
2018-08-17T13:33:52.386Z,97181.56
2018-08-17T13:36:21.071Z,97182.77
2018-08-17T13:38:49.678Z,97181.36
2018-08-17T13:41:18.289Z,97175.23
2018-08-17T13:43:47.187Z,97177.42
2018-08-17T13:46:16.153Z,97187.14
2018-08-17T13:48:45.108Z,97178.75
2018-08-17T13:51:13.828Z,97178.94
2018-08-17T13:53:42.402Z,97170.55
2018-08-17T13:56:10.995Z,97166.95
2018-08-17T13:58:39.916Z,97166.80
2018-08-17T14:01:08.548Z,97162.69
2018-08-17T14:03:37.136Z,97158.16
2018-08-17T14:06:06.392Z,97157.34
2018-08-17T14:08:34.956Z,97163.64
2018-08-17T14:11:03.515Z,97162.73
2018-08-17T14:13:32.145Z,97156.45
2018-08-17T14:16:00.700Z,97155.70
2018-08-17T14:18:29.283Z,97164.50
2018-08-17T14:20:57.880Z,97175.33
2018-08-17T14:23:26.439Z,97170.41
2018-08-17T14:25:55.032Z,97176.98
2018-08-17T14:28:23.707Z,97178.02
2018-08-17T14:30:52.276Z,97179.16
2018-08-17T14:33:20.821Z,97182.66
2018-08-17T14:35:49.447Z,97179.55
2018-08-17T14:38:28.920Z,97181.30
2018-08-17T14:40:57.844Z,97178.73
2018-08-17T14:43:27.004Z,97185.28
2018-08-17T14:45:55.588Z,97185.34
2018-08-17T14:48:24.615Z,97181.73
2018-08-17T14:50:53.264Z,97182.61
2018-08-17T14:53:21.863Z,97184.20
2018-08-17T14:55:50.617Z,97184.83
2018-08-17T14:58:19.179Z,97183.69
2018-08-17T15:00:47.779Z,97183.96
2018-08-17T15:03:16.512Z,97182.02
2018-08-17T15:05:45.131Z,97183.34
2018-08-17T15:08:13.780Z,97183.45
2018-08-17T15:10:42.709Z,97189.76
2018-08-17T15:13:11.358Z,97206.24
2018-08-17T15:15:39.907Z,97215.09
2018-08-17T15:18:08.536Z,97210.30
2018-08-17T15:20:37.132Z,97211.91
2018-08-17T15:23:05.818Z,97205.88
2018-08-17T15:25:34.440Z,97207.52
2018-08-17T15:28:03.024Z,97207.22
2018-08-17T15:30:31.633Z,97203.80
2018-08-17T15:33:00.251Z,97201.31
2018-08-17T15:35:28.847Z,97192.88
2018-08-17T15:37:57.452Z,97190.13
2018-08-17T15:40:26.132Z,97191.44
2018-08-17T15:43:03.722Z,97191.80
2018-08-17T15:45:32.548Z,97188.66
2018-08-17T15:48:01.116Z,97190.45
2018-08-17T15:50:29.679Z,97184.42
2018-08-17T15:52:58.496Z,97189.25
2018-08-17T15:55:27.092Z,97187.19
2018-08-17T15:57:55.693Z,97186.68
2018-08-17T16:00:24.405Z,97182.25
2018-08-17T16:02:52.996Z,97186.56
2018-08-17T16:05:21.608Z,97183.25
2018-08-17T16:07:50.340Z,97187.33
2018-08-17T16:10:19.001Z,97181.13
2018-08-17T16:12:47.571Z,97176.38
2018-08-17T16:15:16.195Z,97187.64
2018-08-17T16:17:44.763Z,97185.63
2018-08-17T16:20:13.973Z,97181.91
2018-08-17T16:22:43.443Z,97175.80
2018-08-17T16:25:12.978Z,97170.91
2018-08-17T16:27:42.538Z,97171.23
2018-08-17T16:30:13.296Z,97178.30
2018-08-17T16:32:41.954Z,97180.40
2018-08-17T16:35:10.684Z,97181.84
2018-08-17T16:37:44.081Z,97180.05
2018-08-17T16:40:12.665Z,97173.03
2018-08-17T16:42:41.248Z,97177.92
2018-08-17T16:45:10.429Z,97181.52
2018-08-17T16:47:39.020Z,97181.45
2018-08-17T16:50:09.472Z,97186.70
2018-08-17T16:52:38.194Z,97192.33
2018-08-17T16:55:06.784Z,97194.28
2018-08-17T16:57:35.589Z,97197.56
2018-08-17T17:00:04.985Z,97203.60
2018-08-17T17:02:33.544Z,97209.17
2018-08-17T17:05:02.263Z,97213.22
2018-08-17T17:07:32.005Z,97225.59
2018-08-17T17:10:01.123Z,97222.86
2018-08-17T17:12:29.771Z,97226.30
2018-08-17T17:15:35.728Z,97229.75
2018-08-17T17:18:08.328Z,97229.14
2018-08-17T17:20:38.322Z,97223.92
2018-08-17T17:23:09.339Z,97227.03
2018-08-17T17:25:37.995Z,97241.09
2018-08-17T17:28:07.327Z,97236.02
2018-08-17T17:30:47.386Z,97240.95
2018-08-17T17:33:16.002Z,97245.84
2018-08-17T17:35:45.020Z,97244.23
2018-08-17T17:38:13.887Z,97254.53
2018-08-17T17:40:42.911Z,97263.66
2018-08-17T17:43:11.601Z,97265.21
2018-08-17T17:45:41.028Z,97274.69
2018-08-17T17:48:10.195Z,97272.23
2018-08-17T17:50:38.864Z,97282.19
2018-08-17T17:53:07.691Z,97282.37
2018-08-17T17:55:49.162Z,97292.16
2018-08-17T17:58:18.159Z,97296.41
2018-08-17T18:00:59.020Z,97301.98
2018-08-17T18:03:29.924Z,97303.92
2018-08-17T18:06:07.564Z,97309.80
2018-08-17T18:08:36.355Z,97313.25
2018-08-17T18:11:04.943Z,97315.06
2018-08-17T18:13:33.509Z,97319.25
2018-08-17T18:16:02.448Z,97326.92
2018-08-17T18:18:31.204Z,97333.59
2018-08-17T18:20:59.831Z,97331.97
2018-08-17T18:23:28.583Z,97341.41
2018-08-17T18:25:57.255Z,97345.14
2018-08-17T18:28:25.824Z,97355.40
2018-08-17T18:30:54.448Z,97351.48
2018-08-17T18:33:23.059Z,97357.80
2018-08-17T18:35:51.620Z,97373.35
2018-08-17T18:38:20.315Z,97366.98
2018-08-17T18:40:48.908Z,97366.98
2018-08-17T18:43:17.471Z,97373.78
2018-08-17T18:45:46.372Z,97375.23
2018-08-17T18:48:14.932Z,97391.80
2018-08-17T18:50:43.503Z,97388.52
2018-08-17T18:53:12.208Z,97391.74
2018-08-17T18:55:40.783Z,97406.52
2018-08-17T18:58:09.340Z,97409.68
2018-08-17T19:00:37.985Z,97414.53
2018-08-17T19:03:06.633Z,97424.28
2018-08-17T19:05:35.204Z,97420.31
2018-08-17T19:08:03.808Z,97428.76
2018-08-17T19:10:32.454Z,97423.78
2018-08-17T19:13:00.943Z,97428.16
2018-08-17T19:15:30.993Z,97426.33
2018-08-17T19:17:59.614Z,97434.89
2018-08-17T19:20:28.212Z,97435.03
2018-08-17T19:22:56.843Z,97440.99
2018-08-17T19:25:25.421Z,97439.35
2018-08-17T19:27:53.983Z,97437.39
2018-08-17T19:30:27.892Z,97441.39
2018-08-17T19:32:57.604Z,97444.66
2018-08-17T19:35:26.200Z,97447.77
2018-08-17T19:37:54.859Z,97450.95
2018-08-17T19:40:23.740Z,97446.34
2018-08-17T19:42:52.382Z,97443.16
2018-08-17T19:45:21.714Z,97455.02
2018-08-17T19:47:50.716Z,97453.06
2018-08-17T19:50:19.305Z,97454.13
2018-08-17T19:52:48.041Z,97451.19
2018-08-17T19:55:16.706Z,97458.36
2018-08-17T19:57:45.317Z,97464.95
2018-08-17T20:00:14.547Z,97465.14
2018-08-17T20:02:43.196Z,97455.23
2018-08-17T20:05:11.859Z,97466.09
2018-08-17T20:07:40.594Z,97464.00
2018-08-17T20:10:11.358Z,97474.87
2018-08-17T20:12:40.119Z,97482.28
2018-08-17T20:15:09.209Z,97472.56
2018-08-17T20:17:38.428Z,97472.03
2018-08-17T20:20:11.522Z,97466.69
2018-08-17T20:22:40.076Z,97471.37
2018-08-17T20:25:13.038Z,97469.57
2018-08-17T20:27:41.708Z,97470.42
2018-08-17T20:30:15.572Z,97473.52
2018-08-17T20:32:44.576Z,97473.59
2018-08-17T20:35:13.184Z,97478.58
2018-08-17T20:37:46.009Z,97479.14
2018-08-17T20:40:14.904Z,97495.48
2018-08-17T20:42:43.475Z,97500.31
2018-08-17T20:45:12.426Z,97505.24
2018-08-17T20:47:42.022Z,97507.36
2018-08-17T20:50:13.043Z,97517.03
2018-08-17T20:53:01.503Z,97517.91
2018-08-17T20:55:30.132Z,97519.83
2018-08-17T20:57:59.467Z,97526.46
2018-08-17T21:00:29.792Z,97530.94
2018-08-17T21:02:58.344Z,97533.22
2018-08-17T21:05:26.949Z,97537.03
2018-08-17T21:07:55.551Z,97538.59
2018-08-17T21:10:24.124Z,97538.55
2018-08-17T21:12:52.692Z,97545.70
2018-08-17T21:15:21.475Z,97558.26
2018-08-17T21:17:50.115Z,97563.28
2018-08-17T21:20:18.728Z,97568.14
2018-08-17T21:22:47.352Z,97576.11
2018-08-17T21:25:15.951Z,97575.28
2018-08-17T21:27:44.549Z,97579.32
2018-08-17T21:30:13.178Z,97587.21
2018-08-17T21:32:41.787Z,97589.72
2018-08-17T21:35:10.379Z,97585.02
2018-08-17T21:37:39.131Z,97586.72
2018-08-17T21:40:14.644Z,97589.58
2018-08-17T21:42:43.360Z,97596.50
2018-08-17T21:45:11.980Z,97595.56
2018-08-17T21:47:40.567Z,97594.71
2018-08-17T21:50:13.795Z,97589.86
2018-08-17T21:52:43.687Z,97589.09
2018-08-17T21:55:12.340Z,97597.66
2018-08-17T21:57:41.052Z,97602.27
2018-08-17T22:00:22.101Z,97607.39
2018-08-17T22:02:50.912Z,97608.30
2018-08-17T22:05:25.531Z,97607.51
2018-08-17T22:07:54.124Z,97613.80
2018-08-17T22:10:22.759Z,97617.17
2018-08-17T22:12:51.379Z,97615.84
2018-08-17T22:15:20.096Z,97620.77
2018-08-17T22:17:48.712Z,97629.30
2018-08-17T22:20:17.293Z,97633.40
2018-08-17T22:22:45.915Z,97637.74
2018-08-17T22:25:16.611Z,97647.00
2018-08-17T22:27:45.287Z,97648.09
2018-08-17T22:30:20.607Z,97655.98
2018-08-17T22:32:49.299Z,97654.00
2018-08-17T22:35:18.323Z,97661.03
2018-08-17T22:37:46.909Z,97659.38
2018-08-17T22:40:15.556Z,97658.09
2018-08-17T22:42:46.820Z,97661.61
2018-08-17T22:45:15.388Z,97671.48
2018-08-17T22:47:44.001Z,97668.78
2018-08-17T22:50:12.599Z,97665.38
2018-08-17T22:52:41.215Z,97666.20
2018-08-17T22:55:10.348Z,97668.44
2018-08-17T22:57:38.980Z,97667.48
2018-08-17T23:00:17.104Z,97672.97
2018-08-17T23:02:46.775Z,97669.78
2018-08-17T23:05:17.936Z,97676.94
2018-08-17T23:07:46.555Z,97674.34
2018-08-17T23:10:17.230Z,97666.23
2018-08-17T23:12:47.156Z,97657.80
2018-08-17T23:15:15.807Z,97653.78
2018-08-17T23:17:47.185Z,97655.65
2018-08-17T23:20:16.231Z,97650.95
2018-08-17T23:22:51.740Z,97651.06
2018-08-17T23:25:20.344Z,97639.32
2018-08-17T23:27:49.589Z,97640.97
2018-08-17T23:30:18.608Z,97629.84
2018-08-17T23:32:47.783Z,97628.72
2018-08-17T23:35:16.368Z,97620.00
2018-08-17T23:37:45.289Z,97611.75
2018-08-17T23:40:13.939Z,97600.34
2018-08-17T23:42:42.586Z,97588.07
2018-08-17T23:45:13.374Z,97583.06
2018-08-17T23:47:41.988Z,97586.94
2018-08-17T23:50:11.863Z,97586.76
2018-08-17T23:52:40.570Z,97589.22
2018-08-17T23:55:12.133Z,97582.08
2018-08-17T23:57:40.760Z,97592.52
